sensor_id;sensor_type;location;lat;lon;timestamp;P1;durP1;ratioP1;P2;durP2;ratioP2
73733;SDS011;62039;50.000;9.064;2022-12-07T00:01:12;4.57;;;4.10;;
73733;SDS011;62039;50.000;9.064;2022-12-07T00:03:41;4.33;;;3.70;;
73733;SDS011;62039;50.000;9.064;2022-12-07T00:06:10;4.87;;;4.00;;
73733;SDS011;62039;50.000;9.064;2022-12-07T00:08:37;4.67;;;3.70;;
73733;SDS011;62039;50.000;9.064;2022-12-07T00:11:05;4.57;;;4.07;;
73733;SDS011;62039;50.000;9.064;2022-12-07T00:13:33;5.50;;;4.23;;
73733;SDS011;62039;50.000;9.064;2022-12-07T00:16:00;4.60;;;3.83;;
73733;SDS011;62039;50.000;9.064;2022-12-07T00:18:28;3.93;;;3.53;;
73733;SDS011;62039;50.000;9.064;2022-12-07T00:20:59;4.07;;;3.47;;
73733;SDS011;62039;50.000;9.064;2022-12-07T00:23:26;4.73;;;3.80;;
73733;SDS011;62039;50.000;9.064;2022-12-07T00:25:53;4.57;;;4.10;;
73733;SDS011;62039;50.000;9.064;2022-12-07T00:28:19;4.80;;;4.17;;
73733;SDS011;62039;50.000;9.064;2022-12-07T00:30:46;4.87;;;4.20;;
73733;SDS011;62039;50.000;9.064;2022-12-07T00:33:12;4.77;;;4.00;;
73733;SDS011;62039;50.000;9.064;2022-12-07T00:35:39;4.40;;;4.00;;
73733;SDS011;62039;50.000;9.064;2022-12-07T00:38:07;5.00;;;4.30;;
73733;SDS011;62039;50.000;9.064;2022-12-07T00:40:33;4.27;;;3.87;;
73733;SDS011;62039;50.000;9.064;2022-12-07T00:43:00;4.33;;;3.70;;
73733;SDS011;62039;50.000;9.064;2022-12-07T00:45:26;3.97;;;3.67;;
73733;SDS011;62039;50.000;9.064;2022-12-07T00:47:53;5.33;;;4.60;;
73733;SDS011;62039;50.000;9.064;2022-12-07T00:50:19;5.00;;;3.93;;
73733;SDS011;62039;50.000;9.064;2022-12-07T00:52:46;6.20;;;4.40;;
73733;SDS011;62039;50.000;9.064;2022-12-07T00:55:14;5.47;;;4.17;;
73733;SDS011;62039;50.000;9.064;2022-12-07T00:57:41;5.93;;;4.00;;
73733;SDS011;62039;50.000;9.064;2022-12-07T01:00:08;6.50;;;4.63;;
73733;SDS011;62039;50.000;9.064;2022-12-07T01:02:34;5.87;;;4.17;;
73733;SDS011;62039;50.000;9.064;2022-12-07T01:05:01;4.73;;;4.10;;
73733;SDS011;62039;50.000;9.064;2022-12-07T01:07:28;4.13;;;3.73;;
73733;SDS011;62039;50.000;9.064;2022-12-07T01:09:54;5.13;;;4.00;;
73733;SDS011;62039;50.000;9.064;2022-12-07T01:12:22;5.53;;;4.20;;
73733;SDS011;62039;50.000;9.064;2022-12-07T01:14:48;5.13;;;4.30;;
73733;SDS011;62039;50.000;9.064;2022-12-07T01:17:15;5.10;;;4.07;;
73733;SDS011;62039;50.000;9.064;2022-12-07T01:19:42;5.47;;;4.53;;
73733;SDS011;62039;50.000;9.064;2022-12-07T01:22:08;5.47;;;4.33;;
73733;SDS011;62039;50.000;9.064;2022-12-07T01:24:35;5.30;;;4.53;;
73733;SDS011;62039;50.000;9.064;2022-12-07T01:27:01;4.53;;;3.90;;
73733;SDS011;62039;50.000;9.064;2022-12-07T01:29:29;4.77;;;4.13;;
73733;SDS011;62039;50.000;9.064;2022-12-07T01:31:56;4.87;;;4.27;;
73733;SDS011;62039;50.000;9.064;2022-12-07T01:34:22;5.57;;;4.80;;
73733;SDS011;62039;50.000;9.064;2022-12-07T01:36:49;5.03;;;4.27;;
73733;SDS011;62039;50.000;9.064;2022-12-07T01:39:15;5.03;;;4.23;;
73733;SDS011;62039;50.000;9.064;2022-12-07T01:41:42;4.90;;;4.40;;
73733;SDS011;62039;50.000;9.064;2022-12-07T01:44:16;4.97;;;4.27;;
73733;SDS011;62039;50.000;9.064;2022-12-07T01:46:45;6.90;;;4.40;;
73733;SDS011;62039;50.000;9.064;2022-12-07T01:49:14;5.60;;;4.13;;
73733;SDS011;62039;50.000;9.064;2022-12-07T01:51:46;4.73;;;4.23;;
73733;SDS011;62039;50.000;9.064;2022-12-07T01:54:13;5.50;;;4.57;;
73733;SDS011;62039;50.000;9.064;2022-12-07T01:56:42;5.83;;;4.80;;
73733;SDS011;62039;50.000;9.064;2022-12-07T01:59:15;5.47;;;4.33;;
73733;SDS011;62039;50.000;9.064;2022-12-07T02:01:43;6.13;;;5.30;;
73733;SDS011;62039;50.000;9.064;2022-12-07T02:04:12;5.03;;;4.43;;
73733;SDS011;62039;50.000;9.064;2022-12-07T02:06:38;5.30;;;4.50;;
73733;SDS011;62039;50.000;9.064;2022-12-07T02:09:05;6.47;;;4.90;;
73733;SDS011;62039;50.000;9.064;2022-12-07T02:11:32;6.17;;;4.40;;
73733;SDS011;62039;50.000;9.064;2022-12-07T02:13:58;5.90;;;4.60;;
73733;SDS011;62039;50.000;9.064;2022-12-07T02:16:26;4.60;;;4.13;;
73733;SDS011;62039;50.000;9.064;2022-12-07T02:19:07;5.07;;;4.57;;
73733;SDS011;62039;50.000;9.064;2022-12-07T02:21:51;5.80;;;4.67;;
73733;SDS011;62039;50.000;9.064;2022-12-07T02:24:24;5.47;;;4.17;;
73733;SDS011;62039;50.000;9.064;2022-12-07T02:27:24;5.40;;;4.30;;
73733;SDS011;62039;50.000;9.064;2022-12-07T02:30:03;4.53;;;4.13;;
73733;SDS011;62039;50.000;9.064;2022-12-07T02:32:35;6.20;;;4.50;;
73733;SDS011;62039;50.000;9.064;2022-12-07T02:35:09;5.37;;;4.23;;
73733;SDS011;62039;50.000;9.064;2022-12-07T02:37:39;6.90;;;5.00;;
73733;SDS011;62039;50.000;9.064;2022-12-07T02:40:10;4.73;;;4.27;;
73733;SDS011;62039;50.000;9.064;2022-12-07T02:42:44;6.00;;;5.37;;
73733;SDS011;62039;50.000;9.064;2022-12-07T02:45:15;5.37;;;4.83;;
73733;SDS011;62039;50.000;9.064;2022-12-07T02:47:44;6.47;;;5.00;;
73733;SDS011;62039;50.000;9.064;2022-12-07T02:50:14;4.93;;;4.43;;
73733;SDS011;62039;50.000;9.064;2022-12-07T02:52:44;5.67;;;4.50;;
73733;SDS011;62039;50.000;9.064;2022-12-07T02:55:10;5.00;;;4.30;;
73733;SDS011;62039;50.000;9.064;2022-12-07T02:57:42;5.47;;;4.33;;
73733;SDS011;62039;50.000;9.064;2022-12-07T03:00:19;6.40;;;4.83;;
73733;SDS011;62039;50.000;9.064;2022-12-07T03:02:48;6.17;;;5.20;;
73733;SDS011;62039;50.000;9.064;2022-12-07T03:05:26;5.57;;;4.97;;
73733;SDS011;62039;50.000;9.064;2022-12-07T03:08:02;5.13;;;4.63;;
73733;SDS011;62039;50.000;9.064;2022-12-07T03:10:35;5.37;;;4.47;;
73733;SDS011;62039;50.000;9.064;2022-12-07T03:13:08;5.27;;;4.63;;
73733;SDS011;62039;50.000;9.064;2022-12-07T03:15:39;5.93;;;4.57;;
73733;SDS011;62039;50.000;9.064;2022-12-07T03:18:11;5.43;;;4.60;;
73733;SDS011;62039;50.000;9.064;2022-12-07T03:20:41;5.93;;;4.93;;
73733;SDS011;62039;50.000;9.064;2022-12-07T03:23:10;7.00;;;5.40;;
73733;SDS011;62039;50.000;9.064;2022-12-07T03:25:38;5.30;;;4.80;;
73733;SDS011;62039;50.000;9.064;2022-12-07T03:28:07;5.83;;;4.73;;
73733;SDS011;62039;50.000;9.064;2022-12-07T03:30:37;5.63;;;5.03;;
73733;SDS011;62039;50.000;9.064;2022-12-07T03:33:13;5.27;;;4.77;;
73733;SDS011;62039;50.000;9.064;2022-12-07T03:35:44;6.33;;;4.73;;
73733;SDS011;62039;50.000;9.064;2022-12-07T03:38:15;6.20;;;5.33;;
73733;SDS011;62039;50.000;9.064;2022-12-07T03:40:47;5.30;;;4.70;;
73733;SDS011;62039;50.000;9.064;2022-12-07T03:43:18;6.27;;;5.63;;
73733;SDS011;62039;50.000;9.064;2022-12-07T03:45:50;6.37;;;5.73;;
73733;SDS011;62039;50.000;9.064;2022-12-07T03:48:28;6.83;;;5.13;;
73733;SDS011;62039;50.000;9.064;2022-12-07T03:51:00;6.87;;;5.97;;
73733;SDS011;62039;50.000;9.064;2022-12-07T03:53:33;6.70;;;5.53;;
73733;SDS011;62039;50.000;9.064;2022-12-07T03:56:03;8.57;;;5.70;;
73733;SDS011;62039;50.000;9.064;2022-12-07T03:58:30;6.13;;;5.43;;
73733;SDS011;62039;50.000;9.064;2022-12-07T04:00:59;6.33;;;5.07;;
73733;SDS011;62039;50.000;9.064;2022-12-07T04:03:26;7.37;;;4.77;;
73733;SDS011;62039;50.000;9.064;2022-12-07T04:05:52;5.50;;;4.63;;
73733;SDS011;62039;50.000;9.064;2022-12-07T04:08:19;5.67;;;4.87;;
73733;SDS011;62039;50.000;9.064;2022-12-07T04:10:46;6.07;;;5.20;;
73733;SDS011;62039;50.000;9.064;2022-12-07T04:13:13;6.00;;;5.10;;
73733;SDS011;62039;50.000;9.064;2022-12-07T04:15:39;6.50;;;4.77;;
73733;SDS011;62039;50.000;9.064;2022-12-07T04:18:07;5.97;;;5.00;;
73733;SDS011;62039;50.000;9.064;2022-12-07T04:20:34;6.20;;;5.40;;
73733;SDS011;62039;50.000;9.064;2022-12-07T04:23:00;5.67;;;5.07;;
73733;SDS011;62039;50.000;9.064;2022-12-07T04:25:27;7.53;;;5.90;;
73733;SDS011;62039;50.000;9.064;2022-12-07T04:27:53;6.20;;;4.90;;
73733;SDS011;62039;50.000;9.064;2022-12-07T04:30:20;6.20;;;4.70;;
73733;SDS011;62039;50.000;9.064;2022-12-07T04:32:46;6.57;;;5.87;;
73733;SDS011;62039;50.000;9.064;2022-12-07T04:35:14;7.07;;;5.57;;
73733;SDS011;62039;50.000;9.064;2022-12-07T04:37:41;8.20;;;5.83;;
73733;SDS011;62039;50.000;9.064;2022-12-07T04:40:08;6.47;;;5.60;;
73733;SDS011;62039;50.000;9.064;2022-12-07T04:42:35;6.30;;;5.10;;
73733;SDS011;62039;50.000;9.064;2022-12-07T04:45:02;7.67;;;5.83;;
73733;SDS011;62039;50.000;9.064;2022-12-07T04:47:28;6.97;;;4.50;;
73733;SDS011;62039;50.000;9.064;2022-12-07T04:49:55;5.67;;;4.93;;
73733;SDS011;62039;50.000;9.064;2022-12-07T04:52:23;6.47;;;4.93;;
73733;SDS011;62039;50.000;9.064;2022-12-07T04:54:49;6.37;;;5.40;;
73733;SDS011;62039;50.000;9.064;2022-12-07T04:57:16;6.53;;;5.13;;
73733;SDS011;62039;50.000;9.064;2022-12-07T04:59:42;6.40;;;5.70;;
73733;SDS011;62039;50.000;9.064;2022-12-07T05:02:11;5.83;;;5.03;;
73733;SDS011;62039;50.000;9.064;2022-12-07T05:04:38;6.37;;;5.37;;
73733;SDS011;62039;50.000;9.064;2022-12-07T05:07:04;5.13;;;4.60;;
73733;SDS011;62039;50.000;9.064;2022-12-07T05:09:32;5.33;;;4.70;;
73733;SDS011;62039;50.000;9.064;2022-12-07T05:11:59;4.53;;;4.07;;
73733;SDS011;62039;50.000;9.064;2022-12-07T05:14:25;5.30;;;4.67;;
73733;SDS011;62039;50.000;9.064;2022-12-07T05:16:52;5.70;;;4.83;;
73733;SDS011;62039;50.000;9.064;2022-12-07T05:19:19;6.40;;;5.17;;
73733;SDS011;62039;50.000;9.064;2022-12-07T05:21:45;7.20;;;5.33;;
73733;SDS011;62039;50.000;9.064;2022-12-07T05:24:13;4.90;;;4.30;;
73733;SDS011;62039;50.000;9.064;2022-12-07T05:26:41;4.60;;;4.13;;
73733;SDS011;62039;50.000;9.064;2022-12-07T05:29:10;5.00;;;4.50;;
73733;SDS011;62039;50.000;9.064;2022-12-07T05:31:37;5.93;;;3.90;;
73733;SDS011;62039;50.000;9.064;2022-12-07T05:34:03;6.60;;;4.47;;
73733;SDS011;62039;50.000;9.064;2022-12-07T05:36:30;5.67;;;4.50;;
73733;SDS011;62039;50.000;9.064;2022-12-07T05:38:57;4.83;;;4.30;;
73733;SDS011;62039;50.000;9.064;2022-12-07T05:41:23;5.60;;;4.93;;
73733;SDS011;62039;50.000;9.064;2022-12-07T05:43:51;6.37;;;4.63;;
73733;SDS011;62039;50.000;9.064;2022-12-07T05:46:18;5.17;;;4.37;;
73733;SDS011;62039;50.000;9.064;2022-12-07T05:48:45;4.80;;;3.80;;
73733;SDS011;62039;50.000;9.064;2022-12-07T05:51:11;5.97;;;4.27;;
73733;SDS011;62039;50.000;9.064;2022-12-07T05:53:38;4.97;;;3.90;;
73733;SDS011;62039;50.000;9.064;2022-12-07T05:56:05;5.13;;;4.40;;
73733;SDS011;62039;50.000;9.064;2022-12-07T05:58:31;4.07;;;3.67;;
73733;SDS011;62039;50.000;9.064;2022-12-07T06:00:59;4.90;;;4.27;;
73733;SDS011;62039;50.000;9.064;2022-12-07T06:03:26;4.57;;;3.77;;
73733;SDS011;62039;50.000;9.064;2022-12-07T06:05:52;5.70;;;4.63;;
73733;SDS011;62039;50.000;9.064;2022-12-07T06:08:19;4.33;;;3.90;;
73733;SDS011;62039;50.000;9.064;2022-12-07T06:10:46;4.60;;;3.63;;
73733;SDS011;62039;50.000;9.064;2022-12-07T06:13:13;4.23;;;3.73;;
73733;SDS011;62039;50.000;9.064;2022-12-07T06:15:40;4.93;;;4.30;;
73733;SDS011;62039;50.000;9.064;2022-12-07T06:18:08;4.93;;;4.00;;
73733;SDS011;62039;50.000;9.064;2022-12-07T06:20:34;4.60;;;4.13;;
73733;SDS011;62039;50.000;9.064;2022-12-07T06:23:01;4.97;;;3.93;;
73733;SDS011;62039;50.000;9.064;2022-12-07T06:25:27;4.20;;;3.60;;
73733;SDS011;62039;50.000;9.064;2022-12-07T06:27:54;6.03;;;4.27;;
73733;SDS011;62039;50.000;9.064;2022-12-07T06:30:20;5.23;;;3.73;;
73733;SDS011;62039;50.000;9.064;2022-12-07T06:32:47;4.57;;;3.70;;
73733;SDS011;62039;50.000;9.064;2022-12-07T06:35:15;4.57;;;3.90;;
73733;SDS011;62039;50.000;9.064;2022-12-07T06:37:41;3.87;;;3.27;;
73733;SDS011;62039;50.000;9.064;2022-12-07T06:40:08;4.10;;;3.47;;
73733;SDS011;62039;50.000;9.064;2022-12-07T06:42:35;3.70;;;3.40;;
73733;SDS011;62039;50.000;9.064;2022-12-07T06:45:02;3.37;;;3.03;;
73733;SDS011;62039;50.000;9.064;2022-12-07T06:47:29;3.93;;;3.23;;
73733;SDS011;62039;50.000;9.064;2022-12-07T06:50:12;4.17;;;3.57;;
73733;SDS011;62039;50.000;9.064;2022-12-07T06:52:40;3.93;;;3.43;;
73733;SDS011;62039;50.000;9.064;2022-12-07T06:55:07;5.13;;;4.43;;
73733;SDS011;62039;50.000;9.064;2022-12-07T06:57:33;4.83;;;4.00;;
73733;SDS011;62039;50.000;9.064;2022-12-07T07:00:00;4.30;;;3.43;;
73733;SDS011;62039;50.000;9.064;2022-12-07T07:02:27;5.30;;;4.30;;
73733;SDS011;62039;50.000;9.064;2022-12-07T07:04:54;4.40;;;3.83;;
73733;SDS011;62039;50.000;9.064;2022-12-07T07:07:21;5.23;;;4.07;;
73733;SDS011;62039;50.000;9.064;2022-12-07T07:09:49;4.67;;;3.90;;
73733;SDS011;62039;50.000;9.064;2022-12-07T07:12:15;6.40;;;4.60;;
73733;SDS011;62039;50.000;9.064;2022-12-07T07:14:42;5.50;;;4.57;;
73733;SDS011;62039;50.000;9.064;2022-12-07T07:17:08;5.97;;;4.40;;
73733;SDS011;62039;50.000;9.064;2022-12-07T07:19:35;5.50;;;4.83;;
73733;SDS011;62039;50.000;9.064;2022-12-07T07:22:01;5.67;;;4.63;;
73733;SDS011;62039;50.000;9.064;2022-12-07T07:24:28;4.70;;;4.07;;
73733;SDS011;62039;50.000;9.064;2022-12-07T07:26:56;4.40;;;3.57;;
73733;SDS011;62039;50.000;9.064;2022-12-07T07:29:22;5.63;;;4.43;;
73733;SDS011;62039;50.000;9.064;2022-12-07T07:31:49;4.40;;;3.87;;
73733;SDS011;62039;50.000;9.064;2022-12-07T07:34:16;5.03;;;4.00;;
73733;SDS011;62039;50.000;9.064;2022-12-07T07:36:42;5.03;;;4.17;;
73733;SDS011;62039;50.000;9.064;2022-12-07T07:39:09;5.30;;;4.80;;
73733;SDS011;62039;50.000;9.064;2022-12-07T07:41:36;5.30;;;4.23;;
73733;SDS011;62039;50.000;9.064;2022-12-07T07:44:04;5.30;;;4.30;;
73733;SDS011;62039;50.000;9.064;2022-12-07T07:46:30;4.20;;;3.63;;
73733;SDS011;62039;50.000;9.064;2022-12-07T07:48:57;4.70;;;4.13;;
73733;SDS011;62039;50.000;9.064;2022-12-07T07:51:23;5.47;;;4.40;;
73733;SDS011;62039;50.000;9.064;2022-12-07T07:53:50;4.57;;;3.90;;
73733;SDS011;62039;50.000;9.064;2022-12-07T07:56:16;4.80;;;3.83;;
73733;SDS011;62039;50.000;9.064;2022-12-07T07:58:43;5.10;;;4.60;;
73733;SDS011;62039;50.000;9.064;2022-12-07T08:01:11;4.77;;;4.27;;
73733;SDS011;62039;50.000;9.064;2022-12-07T08:03:37;5.93;;;5.10;;
73733;SDS011;62039;50.000;9.064;2022-12-07T08:06:04;8.10;;;4.90;;
73733;SDS011;62039;50.000;9.064;2022-12-07T08:08:31;5.10;;;3.97;;
73733;SDS011;62039;50.000;9.064;2022-12-07T08:10:58;4.33;;;3.87;;
73733;SDS011;62039;50.000;9.064;2022-12-07T08:13:24;4.63;;;4.00;;
73733;SDS011;62039;50.000;9.064;2022-12-07T08:15:56;4.90;;;4.40;;
73733;SDS011;62039;50.000;9.064;2022-12-07T08:18:24;6.83;;;4.80;;
73733;SDS011;62039;50.000;9.064;2022-12-07T08:20:51;6.07;;;4.63;;
73733;SDS011;62039;50.000;9.064;2022-12-07T08:23:17;6.43;;;5.00;;
73733;SDS011;62039;50.000;9.064;2022-12-07T08:25:44;4.73;;;4.23;;
73733;SDS011;62039;50.000;9.064;2022-12-07T08:28:10;5.67;;;4.63;;
73733;SDS011;62039;50.000;9.064;2022-12-07T08:30:37;5.00;;;4.50;;
73733;SDS011;62039;50.000;9.064;2022-12-07T08:33:03;5.03;;;4.27;;
73733;SDS011;62039;50.000;9.064;2022-12-07T08:35:32;6.60;;;5.83;;
73733;SDS011;62039;50.000;9.064;2022-12-07T08:37:59;4.87;;;4.33;;
73733;SDS011;62039;50.000;9.064;2022-12-07T08:40:25;5.30;;;4.77;;
73733;SDS011;62039;50.000;9.064;2022-12-07T08:42:52;5.87;;;4.50;;
73733;SDS011;62039;50.000;9.064;2022-12-07T08:45:19;5.63;;;4.80;;
73733;SDS011;62039;50.000;9.064;2022-12-07T08:47:53;4.93;;;4.30;;
73733;SDS011;62039;50.000;9.064;2022-12-07T08:50:22;4.90;;;4.17;;
73733;SDS011;62039;50.000;9.064;2022-12-07T08:52:51;5.03;;;4.53;;
73733;SDS011;62039;50.000;9.064;2022-12-07T08:55:21;6.33;;;4.70;;
73733;SDS011;62039;50.000;9.064;2022-12-07T08:57:48;4.50;;;3.73;;
73733;SDS011;62039;50.000;9.064;2022-12-07T09:00:15;5.60;;;4.43;;
73733;SDS011;62039;50.000;9.064;2022-12-07T09:02:42;5.20;;;4.70;;
73733;SDS011;62039;50.000;9.064;2022-12-07T09:05:09;6.43;;;5.50;;
73733;SDS011;62039;50.000;9.064;2022-12-07T09:07:42;5.47;;;4.93;;
73733;SDS011;62039;50.000;9.064;2022-12-07T09:10:12;5.80;;;5.20;;
73733;SDS011;62039;50.000;9.064;2022-12-07T09:12:38;5.20;;;4.70;;
73733;SDS011;62039;50.000;9.064;2022-12-07T09:15:05;5.10;;;4.60;;
73733;SDS011;62039;50.000;9.064;2022-12-07T09:17:33;5.40;;;4.70;;
73733;SDS011;62039;50.000;9.064;2022-12-07T09:19:59;5.13;;;4.57;;
73733;SDS011;62039;50.000;9.064;2022-12-07T09:22:28;5.57;;;4.60;;
73733;SDS011;62039;50.000;9.064;2022-12-07T09:24:55;4.57;;;4.10;;
73733;SDS011;62039;50.000;9.064;2022-12-07T09:27:23;5.27;;;4.53;;
73733;SDS011;62039;50.000;9.064;2022-12-07T09:29:49;6.43;;;4.87;;
73733;SDS011;62039;50.000;9.064;2022-12-07T09:32:16;5.20;;;4.07;;
73733;SDS011;62039;50.000;9.064;2022-12-07T09:34:42;6.07;;;4.93;;
73733;SDS011;62039;50.000;9.064;2022-12-07T09:37:09;5.37;;;4.10;;
73733;SDS011;62039;50.000;9.064;2022-12-07T09:39:38;5.17;;;4.67;;
73733;SDS011;62039;50.000;9.064;2022-12-07T09:42:19;4.87;;;4.20;;
73733;SDS011;62039;50.000;9.064;2022-12-07T09:44:55;5.47;;;4.00;;
73733;SDS011;62039;50.000;9.064;2022-12-07T09:47:22;4.83;;;3.83;;
73733;SDS011;62039;50.000;9.064;2022-12-07T09:49:49;4.00;;;3.60;;
73733;SDS011;62039;50.000;9.064;2022-12-07T09:52:20;4.00;;;3.40;;
73733;SDS011;62039;50.000;9.064;2022-12-07T09:54:51;3.93;;;3.53;;
73733;SDS011;62039;50.000;9.064;2022-12-07T09:57:18;4.33;;;3.93;;
73733;SDS011;62039;50.000;9.064;2022-12-07T09:59:52;3.83;;;3.43;;
73733;SDS011;62039;50.000;9.064;2022-12-07T10:02:33;4.33;;;3.93;;
73733;SDS011;62039;50.000;9.064;2022-12-07T10:05:03;4.70;;;3.77;;
73733;SDS011;62039;50.000;9.064;2022-12-07T10:07:32;4.60;;;4.20;;
73733;SDS011;62039;50.000;9.064;2022-12-07T10:09:59;4.17;;;3.73;;
73733;SDS011;62039;50.000;9.064;2022-12-07T10:12:29;4.77;;;3.37;;
73733;SDS011;62039;50.000;9.064;2022-12-07T10:14:59;5.00;;;4.23;;
73733;SDS011;62039;50.000;9.064;2022-12-07T10:17:35;3.80;;;3.47;;
73733;SDS011;62039;50.000;9.064;2022-12-07T10:20:14;5.40;;;4.50;;
73733;SDS011;62039;50.000;9.064;2022-12-07T10:22:59;4.37;;;3.97;;
73733;SDS011;62039;50.000;9.064;2022-12-07T10:25:28;6.07;;;3.23;;
73733;SDS011;62039;50.000;9.064;2022-12-07T10:30:50;4.73;;;4.10;;
73733;SDS011;62039;50.000;9.064;2022-12-07T10:33:32;4.63;;;4.00;;
73733;SDS011;62039;50.000;9.064;2022-12-07T10:36:01;5.30;;;4.00;;
73733;SDS011;62039;50.000;9.064;2022-12-07T10:38:44;4.50;;;3.70;;
73733;SDS011;62039;50.000;9.064;2022-12-07T10:41:11;4.20;;;3.40;;
73733;SDS011;62039;50.000;9.064;2022-12-07T10:43:41;4.83;;;3.87;;
73733;SDS011;62039;50.000;9.064;2022-12-07T10:49:40;3.90;;;3.40;;
73733;SDS011;62039;50.000;9.064;2022-12-07T10:52:37;4.20;;;3.17;;
73733;SDS011;62039;50.000;9.064;2022-12-07T10:55:19;3.50;;;3.20;;
73733;SDS011;62039;50.000;9.064;2022-12-07T10:58:15;3.90;;;3.50;;
73733;SDS011;62039;50.000;9.064;2022-12-07T11:00:51;4.40;;;3.80;;
73733;SDS011;62039;50.000;9.064;2022-12-07T11:03:32;3.80;;;3.23;;
73733;SDS011;62039;50.000;9.064;2022-12-07T11:06:14;3.70;;;3.30;;
73733;SDS011;62039;50.000;9.064;2022-12-07T11:08:54;3.50;;;3.10;;
73733;SDS011;62039;50.000;9.064;2022-12-07T11:11:30;4.20;;;3.07;;
73733;SDS011;62039;50.000;9.064;2022-12-07T11:14:03;3.80;;;3.30;;
73733;SDS011;62039;50.000;9.064;2022-12-07T11:16:42;4.13;;;2.73;;
73733;SDS011;62039;50.000;9.064;2022-12-07T11:19:23;4.33;;;3.80;;
73733;SDS011;62039;50.000;9.064;2022-12-07T11:22:11;4.93;;;3.40;;
73733;SDS011;62039;50.000;9.064;2022-12-07T11:24:44;4.50;;;3.20;;
73733;SDS011;62039;50.000;9.064;2022-12-07T11:27:21;3.47;;;2.90;;
73733;SDS011;62039;50.000;9.064;2022-12-07T11:32:50;3.13;;;2.90;;
73733;SDS011;62039;50.000;9.064;2022-12-07T11:35:27;3.97;;;3.53;;
73733;SDS011;62039;50.000;9.064;2022-12-07T11:38:01;4.20;;;3.10;;
73733;SDS011;62039;50.000;9.064;2022-12-07T11:40:35;4.17;;;3.03;;
73733;SDS011;62039;50.000;9.064;2022-12-07T11:43:04;3.17;;;2.87;;
73733;SDS011;62039;50.000;9.064;2022-12-07T11:45:34;3.20;;;2.93;;
73733;SDS011;62039;50.000;9.064;2022-12-07T11:48:04;4.03;;;2.60;;
73733;SDS011;62039;50.000;9.064;2022-12-07T11:50:40;2.83;;;2.53;;
73733;SDS011;62039;50.000;9.064;2022-12-07T11:53:10;3.10;;;2.77;;
73733;SDS011;62039;50.000;9.064;2022-12-07T11:55:43;3.30;;;2.93;;
73733;SDS011;62039;50.000;9.064;2022-12-07T11:58:19;5.60;;;3.13;;
73733;SDS011;62039;50.000;9.064;2022-12-07T12:00:51;3.00;;;2.47;;
73733;SDS011;62039;50.000;9.064;2022-12-07T12:03:28;3.27;;;2.90;;
73733;SDS011;62039;50.000;9.064;2022-12-07T12:06:01;3.17;;;2.87;;
73733;SDS011;62039;50.000;9.064;2022-12-07T12:08:29;4.17;;;2.93;;
73733;SDS011;62039;50.000;9.064;2022-12-07T12:11:22;3.50;;;2.47;;
73733;SDS011;62039;50.000;9.064;2022-12-07T12:20:04;2.93;;;2.27;;
73733;SDS011;62039;50.000;9.064;2022-12-07T12:22:42;3.30;;;2.43;;
73733;SDS011;62039;50.000;9.064;2022-12-07T12:25:15;2.83;;;2.30;;
73733;SDS011;62039;50.000;9.064;2022-12-07T12:27:47;3.57;;;2.27;;
73733;SDS011;62039;50.000;9.064;2022-12-07T12:30:24;2.73;;;2.27;;
73733;SDS011;62039;50.000;9.064;2022-12-07T12:33:00;3.13;;;2.80;;
73733;SDS011;62039;50.000;9.064;2022-12-07T12:35:30;3.53;;;2.63;;
73733;SDS011;62039;50.000;9.064;2022-12-07T12:40:57;3.47;;;2.53;;
73733;SDS011;62039;50.000;9.064;2022-12-07T12:55:18;2.77;;;2.30;;
73733;SDS011;62039;50.000;9.064;2022-12-07T12:57:53;2.67;;;2.23;;
73733;SDS011;62039;50.000;9.064;2022-12-07T13:04:01;2.33;;;2.10;;
73733;SDS011;62039;50.000;9.064;2022-12-07T13:06:34;2.40;;;2.20;;
73733;SDS011;62039;50.000;9.064;2022-12-07T13:09:02;2.87;;;2.33;;
73733;SDS011;62039;50.000;9.064;2022-12-07T13:11:31;3.03;;;2.50;;
73733;SDS011;62039;50.000;9.064;2022-12-07T13:17:02;2.73;;;2.43;;
73733;SDS011;62039;50.000;9.064;2022-12-07T13:25:19;3.00;;;2.43;;
73733;SDS011;62039;50.000;9.064;2022-12-07T13:27:54;2.10;;;1.90;;
73733;SDS011;62039;50.000;9.064;2022-12-07T13:30:24;2.50;;;2.00;;
73733;SDS011;62039;50.000;9.064;2022-12-07T13:32:51;2.80;;;2.30;;
73733;SDS011;62039;50.000;9.064;2022-12-07T13:35:28;5.90;;;3.53;;
73733;SDS011;62039;50.000;9.064;2022-12-07T13:37:59;7.23;;;4.30;;
73733;SDS011;62039;50.000;9.064;2022-12-07T13:40:28;6.07;;;4.40;;
73733;SDS011;62039;50.000;9.064;2022-12-07T13:43:00;3.73;;;3.03;;
73733;SDS011;62039;50.000;9.064;2022-12-07T13:45:28;4.37;;;2.60;;
73733;SDS011;62039;50.000;9.064;2022-12-07T13:47:56;2.17;;;1.97;;
73733;SDS011;62039;50.000;9.064;2022-12-07T13:50:26;3.27;;;2.00;;
73733;SDS011;62039;50.000;9.064;2022-12-07T13:52:54;3.10;;;2.13;;
73733;SDS011;62039;50.000;9.064;2022-12-07T13:55:22;1.97;;;1.77;;
73733;SDS011;62039;50.000;9.064;2022-12-07T13:57:49;2.70;;;2.00;;
73733;SDS011;62039;50.000;9.064;2022-12-07T14:00:20;2.73;;;2.30;;
73733;SDS011;62039;50.000;9.064;2022-12-07T14:02:54;3.00;;;2.20;;
73733;SDS011;62039;50.000;9.064;2022-12-07T14:05:24;3.50;;;2.30;;
73733;SDS011;62039;50.000;9.064;2022-12-07T14:07:53;2.70;;;2.00;;
73733;SDS011;62039;50.000;9.064;2022-12-07T14:10:24;2.43;;;1.70;;
73733;SDS011;62039;50.000;9.064;2022-12-07T14:12:52;2.83;;;1.63;;
73733;SDS011;62039;50.000;9.064;2022-12-07T14:15:21;1.87;;;1.50;;
73733;SDS011;62039;50.000;9.064;2022-12-07T14:17:49;1.60;;;1.40;;
73733;SDS011;62039;50.000;9.064;2022-12-07T14:20:29;1.50;;;1.30;;
73733;SDS011;62039;50.000;9.064;2022-12-07T14:22:57;1.40;;;1.30;;
73733;SDS011;62039;50.000;9.064;2022-12-07T14:25:24;3.17;;;2.17;;
73733;SDS011;62039;50.000;9.064;2022-12-07T14:27:53;3.90;;;2.40;;
73733;SDS011;62039;50.000;9.064;2022-12-07T14:30:23;3.90;;;2.93;;
73733;SDS011;62039;50.000;9.064;2022-12-07T14:32:52;2.80;;;2.37;;
73733;SDS011;62039;50.000;9.064;2022-12-07T14:35:21;3.13;;;2.33;;
73733;SDS011;62039;50.000;9.064;2022-12-07T14:37:48;3.87;;;2.80;;
73733;SDS011;62039;50.000;9.064;2022-12-07T14:40:16;3.50;;;2.13;;
73733;SDS011;62039;50.000;9.064;2022-12-07T14:42:44;3.27;;;2.30;;
73733;SDS011;62039;50.000;9.064;2022-12-07T14:45:13;4.37;;;3.20;;
73733;SDS011;62039;50.000;9.064;2022-12-07T14:47:48;4.27;;;2.93;;
73733;SDS011;62039;50.000;9.064;2022-12-07T14:50:36;3.20;;;2.90;;
73733;SDS011;62039;50.000;9.064;2022-12-07T14:53:26;5.07;;;3.40;;
73733;SDS011;62039;50.000;9.064;2022-12-07T14:55:55;3.80;;;3.20;;
73733;SDS011;62039;50.000;9.064;2022-12-07T14:58:22;3.83;;;3.47;;
73733;SDS011;62039;50.000;9.064;2022-12-07T15:00:48;3.63;;;3.10;;
73733;SDS011;62039;50.000;9.064;2022-12-07T15:03:16;3.90;;;2.87;;
73733;SDS011;62039;50.000;9.064;2022-12-07T15:05:43;3.10;;;2.60;;
73733;SDS011;62039;50.000;9.064;2022-12-07T15:08:10;3.23;;;2.50;;
73733;SDS011;62039;50.000;9.064;2022-12-07T15:10:38;2.30;;;2.10;;
73733;SDS011;62039;50.000;9.064;2022-12-07T15:13:05;2.43;;;2.23;;
73733;SDS011;62039;50.000;9.064;2022-12-07T15:15:32;4.67;;;4.07;;
73733;SDS011;62039;50.000;9.064;2022-12-07T15:18:00;16.90;;;10.00;;
73733;SDS011;62039;50.000;9.064;2022-12-07T15:20:28;11.17;;;6.67;;
73733;SDS011;62039;50.000;9.064;2022-12-07T15:22:54;8.90;;;5.57;;
73733;SDS011;62039;50.000;9.064;2022-12-07T15:25:21;5.53;;;3.50;;
73733;SDS011;62039;50.000;9.064;2022-12-07T15:27:47;9.37;;;6.13;;
73733;SDS011;62039;50.000;9.064;2022-12-07T15:30:14;12.40;;;8.00;;
73733;SDS011;62039;50.000;9.064;2022-12-07T15:32:41;15.07;;;8.57;;
73733;SDS011;62039;50.000;9.064;2022-12-07T15:35:08;17.07;;;9.13;;
73733;SDS011;62039;50.000;9.064;2022-12-07T15:37:36;13.23;;;7.23;;
73733;SDS011;62039;50.000;9.064;2022-12-07T15:40:04;7.73;;;4.83;;
73733;SDS011;62039;50.000;9.064;2022-12-07T15:42:33;5.50;;;3.30;;
73733;SDS011;62039;50.000;9.064;2022-12-07T15:45:01;3.80;;;2.30;;